Time;durP1;ratioP1;P1;durP2;ratioP2;P2;SDS_P1;SDS_P2;PMS_P1;PMS_P2;Temp;Humidity;BMP_temperature;BMP_pressure;BME280_temperature;BME280_humidity;BME280_pressure;Samples;Min_cycle;Max_cycle;Signal;HPM_P1;HPM_P2
2022/05/15 00:01:02;;;;;;;5.63;2.95;;;;;;;;;;5057316;28;20103;-80
2022/05/15 00:03:28;;;;;;;7.40;3.28;;;;;;;;;;5054564;28;20033;-81
2022/05/15 00:06:06;;;;;;;7.13;2.72;;;;;;;;;;5037490;28;20051;-81
2022/05/15 00:08:33;;;;;;;5.68;3.00;;;;;;;;;;5024630;28;20037;-80
2022/05/15 00:10:59;;;;;;;7.32;3.03;;;;;;;;;;4985294;28;20029;-80
2022/05/15 00:13:24;;;;;;;6.57;3.35;;;;;;;;;;5001229;28;20629;-81
2022/05/15 00:15:50;;;;;;;5.78;2.70;;;;;;;;;;5017781;28;20108;-81
2022/05/15 00:18:20;;;;;;;6.93;3.38;;;;;;;;;;5001712;28;20059;-80
2022/05/15 00:20:45;;;;;;;4.63;2.60;;;;;;;;;;5001229;28;20771;-81
2022/05/15 00:23:11;;;;;;;9.23;3.92;;;;;;;;;;5001347;28;20037;-81
2022/05/15 00:25:37;;;;;;;4.30;2.80;;;;;;;;;;5017400;28;20029;-80
2022/05/15 00:28:02;;;;;;;5.32;3.33;;;;;;;;;;5017860;28;20033;-81
2022/05/15 00:30:28;;;;;;;4.78;2.60;;;;;;;;;;4984916;28;20040;-81
2022/05/15 00:32:53;;;;;;;4.60;2.63;;;;;;;;;;5017311;28;20041;-81
2022/05/15 00:35:19;;;;;;;5.25;3.05;;;;;;;;;;5016974;28;20039;-80
2022/05/15 00:37:44;;;;;;;5.28;2.45;;;;;;;;;;5016761;28;20124;-80
2022/05/15 00:40:10;;;;;;;6.50;3.60;;;;;;;;;;5017520;28;20037;-81
2022/05/15 00:42:36;;;;;;;5.30;2.70;;;;;;;;;;5017209;28;20411;-81
2022/05/15 00:45:03;;;;;;;5.65;2.42;;;;;;;;;;5017201;28;20095;-80
2022/05/15 00:47:28;;;;;;;7.00;3.10;;;;;;;;;;5011428;28;20033;-81
2022/05/15 00:49:54;;;;;;;5.00;2.80;;;;;;;;;;4997219;28;20099;-80
2022/05/15 00:52:22;;;;;;;5.97;2.72;;;;;;;;;;4997541;28;20067;-80
2022/05/15 00:55:18;;;;;;;4.07;2.28;;;;;;;;;;5003703;28;20035;-80
2022/05/15 00:57:47;;;;;;;3.95;2.17;;;;;;;;;;5040040;28;20055;-80
2022/05/15 01:00:18;;;;;;;6.20;2.35;;;;;;;;;;5020396;28;20032;-80
2022/05/15 01:02:54;;;;;;;4.93;2.75;;;;;;;;;;5020310;28;20094;-80
2022/05/15 01:05:20;;;;;;;5.20;2.42;;;;;;;;;;5036643;28;20036;-80
2022/05/15 01:07:45;;;;;;;5.63;2.50;;;;;;;;;;5030776;28;20037;-81
2022/05/15 01:10:11;;;;;;;6.65;3.08;;;;;;;;;;5000584;28;20037;-80
2022/05/15 01:12:38;;;;;;;5.40;2.33;;;;;;;;;;5000453;28;20037;-80
2022/05/15 01:15:04;;;;;;;5.18;2.95;;;;;;;;;;5000908;28;20076;-80
2022/05/15 01:17:30;;;;;;;5.25;2.35;;;;;;;;;;5000477;28;20041;-80
2022/05/15 01:20:07;;;;;;;5.50;2.20;;;;;;;;;;5000327;28;20041;-80
2022/05/15 01:22:33;;;;;;;5.03;2.53;;;;;;;;;;5016822;28;20040;-80
2022/05/15 01:24:58;;;;;;;6.90;2.67;;;;;;;;;;5000673;28;20402;-80
2022/05/15 01:27:24;;;;;;;7.68;3.10;;;;;;;;;;5000423;28;20029;-80
2022/05/15 01:29:49;;;;;;;3.90;2.50;;;;;;;;;;5000294;28;20035;-80
2022/05/15 01:32:15;;;;;;;5.35;2.78;;;;;;;;;;4983974;28;20103;-80
2022/05/15 01:34:40;;;;;;;4.18;2.47;;;;;;;;;;5017015;28;20438;-80
2022/05/15 01:37:06;;;;;;;6.13;2.33;;;;;;;;;;5000869;28;20055;-80
2022/05/15 01:39:31;;;;;;;4.95;2.83;;;;;;;;;;5000242;28;20040;-81
2022/05/15 01:41:57;;;;;;;5.47;2.28;;;;;;;;;;5017083;28;20033;-80
2022/05/15 01:44:22;;;;;;;4.13;2.50;;;;;;;;;;5032903;28;20402;-80
2022/05/15 01:46:51;;;;;;;6.60;2.90;;;;;;;;;;5016097;28;20048;-80
2022/05/15 01:49:16;;;;;;;5.38;1.88;;;;;;;;;;5014931;28;20527;-80
2022/05/15 01:51:42;;;;;;;4.68;3.25;;;;;;;;;;5017210;28;20041;-80
2022/05/15 01:54:07;;;;;;;3.80;2.40;;;;;;;;;;5017412;28;20115;-80
2022/05/15 01:56:34;;;;;;;4.75;2.35;;;;;;;;;;5037510;28;20040;-80
2022/05/15 01:58:59;;;;;;;4.65;2.53;;;;;;;;;;5023519;28;20046;-81
2022/05/15 02:01:25;;;;;;;5.00;2.67;;;;;;;;;;5023309;28;20032;-80
2022/05/15 02:03:50;;;;;;;5.57;2.65;;;;;;;;;;5039914;28;20052;-80
2022/05/15 02:06:16;;;;;;;8.50;3.35;;;;;;;;;;5039905;28;20041;-80
2022/05/15 02:08:42;;;;;;;4.85;2.40;;;;;;;;;;5009712;28;20033;-80
2022/05/15 02:11:08;;;;;;;4.15;2.63;;;;;;;;;;5020329;28;20075;-80
2022/05/15 02:13:34;;;;;;;4.53;2.70;;;;;;;;;;5003456;28;20040;-80
2022/05/15 02:16:00;;;;;;;4.40;2.58;;;;;;;;;;5019470;28;20073;-80
2022/05/15 02:18:26;;;;;;;6.68;2.75;;;;;;;;;;5003982;28;20033;-80
2022/05/15 02:20:51;;;;;;;4.78;2.70;;;;;;;;;;5019702;28;20113;-80
2022/05/15 02:23:16;;;;;;;4.60;2.40;;;;;;;;;;5020172;28;20086;-80
2022/05/15 02:25:42;;;;;;;4.78;2.40;;;;;;;;;;5019716;28;20083;-81
2022/05/15 02:28:08;;;;;;;5.32;2.92;;;;;;;;;;5019413;28;20036;-80
2022/05/15 02:30:33;;;;;;;6.38;2.70;;;;;;;;;;5003118;28;20055;-80
2022/05/15 02:32:59;;;;;;;4.63;2.83;;;;;;;;;;5003216;28;20045;-80
2022/05/15 02:35:25;;;;;;;4.57;2.78;;;;;;;;;;5003502;28;20412;-80
2022/05/15 02:37:50;;;;;;;6.82;2.88;;;;;;;;;;5019437;28;20048;-80
2022/05/15 02:40:17;;;;;;;5.90;2.50;;;;;;;;;;5003274;28;20033;-81
2022/05/15 02:42:43;;;;;;;4.80;2.40;;;;;;;;;;5035506;28;20029;-80
2022/05/15 02:45:09;;;;;;;4.70;2.60;;;;;;;;;;5035623;28;20041;-80
2022/05/15 02:47:34;;;;;;;6.78;2.38;;;;;;;;;;4996457;28;20033;-80
2022/05/15 02:52:44;;;;;;;6.20;2.50;;;;;;;;;;5018789;28;20038;-80
2022/05/15 02:55:10;;;;;;;4.85;2.42;;;;;;;;;;5005586;28;20036;-80
2022/05/15 02:57:37;;;;;;;5.05;2.30;;;;;;;;;;5002582;28;20043;-80
2022/05/15 03:00:03;;;;;;;5.22;2.80;;;;;;;;;;5018007;28;20507;-80
2022/05/15 03:02:29;;;;;;;5.90;2.75;;;;;;;;;;5035480;28;20071;-79
2022/05/15 03:04:55;;;;;;;4.97;2.63;;;;;;;;;;5018892;28;20439;-80
2022/05/15 03:07:21;;;;;;;4.80;2.67;;;;;;;;;;5002881;28;20918;-81
2022/05/15 03:09:47;;;;;;;6.30;2.88;;;;;;;;;;5002949;28;20043;-80
2022/05/15 03:12:13;;;;;;;4.90;2.63;;;;;;;;;;5019131;28;20040;-81
2022/05/15 03:14:38;;;;;;;5.82;2.40;;;;;;;;;;5002043;28;20029;-80
2022/05/15 03:17:04;;;;;;;5.47;2.90;;;;;;;;;;5002359;28;20067;-81
2022/05/15 03:19:29;;;;;;;5.30;2.53;;;;;;;;;;5002348;28;20041;-80
2022/05/15 03:21:54;;;;;;;4.65;2.60;;;;;;;;;;5018960;28;20024;-80
2022/05/15 03:24:20;;;;;;;3.55;2.42;;;;;;;;;;5018997;28;20071;-80
2022/05/15 03:26:46;;;;;;;5.88;3.28;;;;;;;;;;4986083;28;20040;-80
2022/05/15 03:29:13;;;;;;;3.45;2.33;;;;;;;;;;5001931;28;20115;-80
2022/05/15 03:31:39;;;;;;;4.60;2.55;;;;;;;;;;5018937;28;20033;-80
2022/05/15 03:34:09;;;;;;;3.13;2.08;;;;;;;;;;4999031;28;20055;-80
2022/05/15 03:36:35;;;;;;;3.42;2.35;;;;;;;;;;4998847;28;20512;-80
2022/05/15 03:39:00;;;;;;;5.38;2.72;;;;;;;;;;5015460;28;20029;-80
2022/05/15 03:41:29;;;;;;;4.03;2.40;;;;;;;;;;4998506;28;20488;-80
2022/05/15 03:43:54;;;;;;;4.72;3.13;;;;;;;;;;5014520;28;20026;-80
2022/05/15 03:46:20;;;;;;;6.18;2.67;;;;;;;;;;4998550;28;20063;-80
2022/05/15 03:48:45;;;;;;;5.63;3.53;;;;;;;;;;5014796;28;20045;-80
2022/05/15 03:51:11;;;;;;;4.53;2.78;;;;;;;;;;4998555;28;20045;-80
2022/05/15 03:53:37;;;;;;;4.55;2.83;;;;;;;;;;4998395;28;20503;-80
2022/05/15 03:56:03;;;;;;;3.83;2.47;;;;;;;;;;5025419;28;20482;-80
2022/05/15 03:58:30;;;;;;;4.18;2.85;;;;;;;;;;5020882;28;20028;-80
2022/05/15 04:00:55;;;;;;;5.63;2.80;;;;;;;;;;5037610;28;20032;-81
2022/05/15 04:03:21;;;;;;;4.68;2.70;;;;;;;;;;5037741;28;20549;-80
2022/05/15 04:05:46;;;;;;;3.70;2.60;;;;;;;;;;5037434;28;20490;-81
2022/05/15 04:08:12;;;;;;;4.78;2.42;;;;;;;;;;5011334;28;20467;-80
2022/05/15 04:10:38;;;;;;;4.65;2.25;;;;;;;;;;5017540;28;20111;-80
2022/05/15 04:13:04;;;;;;;4.35;2.40;;;;;;;;;;5016802;28;20060;-81
2022/05/15 04:15:29;;;;;;;5.60;2.53;;;;;;;;;;5001407;28;20044;-81
2022/05/15 04:17:55;;;;;;;3.83;2.50;;;;;;;;;;5001639;28;20033;-81
2022/05/15 04:20:22;;;;;;;4.93;2.40;;;;;;;;;;5017792;28;20475;-80
2022/05/15 04:22:47;;;;;;;4.00;2.65;;;;;;;;;;5001221;28;20167;-80
2022/05/15 04:25:13;;;;;;;3.47;2.80;;;;;;;;;;5000944;28;20449;-80
2022/05/15 04:27:41;;;;;;;4.32;2.50;;;;;;;;;;5017692;28;20040;-80
2022/05/15 04:30:11;;;;;;;5.65;2.55;;;;;;;;;;5001044;28;20090;-80
2022/05/15 04:32:37;;;;;;;7.50;2.80;;;;;;;;;;5018255;28;20049;-79
2022/05/15 04:35:02;;;;;;;4.70;2.40;;;;;;;;;;5001034;28;20036;-80
2022/05/15 04:37:28;;;;;;;3.97;2.30;;;;;;;;;;5000938;28;20036;-80
2022/05/15 04:39:53;;;;;;;4.00;2.80;;;;;;;;;;5017385;28;20041;-80
2022/05/15 04:42:19;;;;;;;6.75;2.65;;;;;;;;;;5017422;28;20033;-80
2022/05/15 04:44:45;;;;;;;5.22;2.60;;;;;;;;;;5017165;28;20093;-80
2022/05/15 04:47:11;;;;;;;4.40;2.25;;;;;;;;;;5030493;28;20045;-79
2022/05/15 04:49:36;;;;;;;3.40;2.33;;;;;;;;;;5013848;28;20084;-80
2022/05/15 04:52:02;;;;;;;4.72;2.28;;;;;;;;;;5013331;28;20084;-80
2022/05/15 04:54:27;;;;;;;3.97;2.60;;;;;;;;;;5012321;28;20026;-80
2022/05/15 04:56:53;;;;;;;3.90;2.50;;;;;;;;;;5034632;28;20094;-83
2022/05/15 04:59:18;;;;;;;5.10;2.30;;;;;;;;;;5018825;28;20043;-82
2022/05/15 05:01:43;;;;;;;3.95;2.17;;;;;;;;;;5036097;28;20511;-83
2022/05/15 05:04:09;;;;;;;4.10;2.40;;;;;;;;;;5052353;28;20036;-83
2022/05/15 05:06:34;;;;;;;4.15;2.95;;;;;;;;;;5020227;28;20143;-81
2022/05/15 05:09:00;;;;;;;3.42;2.10;;;;;;;;;;5035378;28;20074;-82
2022/05/15 05:11:25;;;;;;;5.15;2.63;;;;;;;;;;4998829;28;20540;-82
2022/05/15 05:13:50;;;;;;;15.40;3.30;;;;;;;;;;4984126;28;20033;-82
2022/05/15 05:16:16;;;;;;;13.98;3.65;;;;;;;;;;4998518;28;20041;-83
2022/05/15 05:18:41;;;;;;;21.95;4.70;;;;;;;;;;5033166;28;20073;-83
2022/05/15 05:21:07;;;;;;;37.90;5.40;;;;;;;;;;5012173;28;20037;-81
2022/05/15 05:23:32;;;;;;;35.47;6.10;;;;;;;;;;5026006;28;20141;-82
2022/05/15 05:25:58;;;;;;;33.83;5.90;;;;;;;;;;5001389;28;20440;-86
2022/05/15 05:28:23;;;;;;;31.33;5.90;;;;;;;;;;4983520;28;20120;-83
2022/05/15 05:30:49;;;;;;;27.70;5.68;;;;;;;;;;5020839;28;20041;-82
2022/05/15 05:33:14;;;;;;;21.05;5.07;;;;;;;;;;5017390;28;20030;-81
2022/05/15 05:35:40;;;;;;;30.45;5.60;;;;;;;;;;5000090;28;20030;-84
2022/05/15 05:38:05;;;;;;;35.03;6.63;;;;;;;;;;5017046;28;20033;-83
2022/05/15 05:40:31;;;;;;;49.78;8.23;;;;;;;;;;5020594;28;20563;-84
2022/05/15 05:42:56;;;;;;;33.60;5.88;;;;;;;;;;5020657;28;20411;-85
2022/05/15 05:45:22;;;;;;;32.38;5.65;;;;;;;;;;5021148;28;20047;-85
2022/05/15 05:47:48;;;;;;;28.42;5.40;;;;;;;;;;5000800;28;20132;-84
2022/05/15 05:50:14;;;;;;;23.85;4.32;;;;;;;;;;5016930;28;20091;-85
2022/05/15 05:52:39;;;;;;;22.77;5.10;;;;;;;;;;5000318;28;20033;-83
2022/05/15 05:55:06;;;;;;;21.65;4.40;;;;;;;;;;4986524;28;20026;-83
2022/05/15 05:57:31;;;;;;;18.67;3.92;;;;;;;;;;5000601;28;20029;-81
2022/05/15 05:59:57;;;;;;;13.65;3.83;;;;;;;;;;5000655;28;20044;-82
2022/05/15 06:02:22;;;;;;;14.25;3.42;;;;;;;;;;5017376;28;20048;-81
2022/05/15 06:04:50;;;;;;;12.13;3.03;;;;;;;;;;5000435;28;20476;-81
2022/05/15 06:07:24;;;;;;;8.40;2.95;;;;;;;;;;5003644;28;20040;-81
2022/05/15 06:09:49;;;;;;;8.00;3.03;;;;;;;;;;5003523;28;20041;-82
2022/05/15 06:12:16;;;;;;;9.70;3.42;;;;;;;;;;5019933;28;20502;-82
2022/05/15 06:14:42;;;;;;;7.00;3.45;;;;;;;;;;5003391;28;20037;-82
2022/05/15 06:17:07;;;;;;;6.78;3.95;;;;;;;;;;5000253;28;20064;-82
2022/05/15 06:19:33;;;;;;;8.57;3.50;;;;;;;;;;4983726;28;20040;-82
2022/05/15 06:21:58;;;;;;;10.32;5.03;;;;;;;;;;4999850;28;20167;-82
2022/05/15 06:24:25;;;;;;;6.97;2.88;;;;;;;;;;5035339;28;20054;-82
2022/05/15 06:26:51;;;;;;;6.72;3.42;;;;;;;;;;5003338;28;20484;-82
2022/05/15 06:29:16;;;;;;;10.98;3.78;;;;;;;;;;5012780;28;20041;-82
2022/05/15 06:31:42;;;;;;;7.38;3.30;;;;;;;;;;5003164;28;20036;-83
2022/05/15 06:34:07;;;;;;;6.07;2.72;;;;;;;;;;5018561;28;20040;-82
2022/05/15 06:36:33;;;;;;;6.70;2.80;;;;;;;;;;5019192;28;20029;-81
2022/05/15 06:38:58;;;;;;;8.27;2.60;;;;;;;;;;5003319;28;20040;-81
2022/05/15 06:41:24;;;;;;;5.55;2.80;;;;;;;;;;5019129;28;20037;-81
2022/05/15 06:43:50;;;;;;;6.05;2.60;;;;;;;;;;5035585;28;20111;-81
2022/05/15 06:46:15;;;;;;;6.75;3.55;;;;;;;;;;5002808;28;20116;-81
2022/05/15 06:48:41;;;;;;;6.88;2.80;;;;;;;;;;5009343;28;20049;-81
2022/05/15 06:51:06;;;;;;;4.57;2.33;;;;;;;;;;5018625;28;20037;-81
2022/05/15 06:53:32;;;;;;;7.65;3.20;;;;;;;;;;5000642;28;20041;-81
2022/05/15 06:58:42;;;;;;;11.38;4.30;;;;;;;;;;5038698;28;20037;-82
2022/05/15 07:01:07;;;;;;;10.20;5.68;;;;;;;;;;5019152;28;20487;-81
2022/05/15 07:03:33;;;;;;;5.90;4.07;;;;;;;;;;5035627;28;20545;-81
2022/05/15 07:05:58;;;;;;;10.05;4.88;;;;;;;;;;5018511;28;20056;-81
2022/05/15 07:08:24;;;;;;;11.73;6.50;;;;;;;;;;5019106;28;20124;-81
2022/05/15 07:10:49;;;;;;;13.27;7.22;;;;;;;;;;5002521;28;20086;-81
2022/05/15 07:13:15;;;;;;;14.15;6.97;;;;;;;;;;5002135;28;20040;-81
2022/05/15 07:15:40;;;;;;;11.02;6.13;;;;;;;;;;5002596;28;20066;-81
2022/05/15 07:18:06;;;;;;;11.13;5.35;;;;;;;;;;4998480;28;20034;-81
2022/05/15 07:20:32;;;;;;;11.27;5.38;;;;;;;;;;4998940;28;20037;-81
2022/05/15 07:22:57;;;;;;;11.23;4.95;;;;;;;;;;4986013;28;20124;-81
2022/05/15 07:25:23;;;;;;;8.30;4.75;;;;;;;;;;5035302;28;20473;-81
2022/05/15 07:27:48;;;;;;;8.77;4.38;;;;;;;;;;5002107;28;20036;-81
2022/05/15 07:30:14;;;;;;;15.63;4.35;;;;;;;;;;5002207;28;20510;-81
2022/05/15 07:32:39;;;;;;;11.85;4.55;;;;;;;;;;5002000;28;20143;-80
2022/05/15 07:35:08;;;;;;;9.38;4.00;;;;;;;;;;5018240;28;20045;-80
2022/05/15 07:37:33;;;;;;;9.35;3.65;;;;;;;;;;5034867;28;20091;-80
2022/05/15 07:39:59;;;;;;;9.75;4.32;;;;;;;;;;5051574;28;20029;-80
2022/05/15 07:42:24;;;;;;;7.50;3.95;;;;;;;;;;5034540;28;20033;-80
2022/05/15 07:44:50;;;;;;;9.93;4.30;;;;;;;;;;5034415;28;20057;-80
2022/05/15 07:47:16;;;;;;;9.55;3.38;;;;;;;;;;4998281;28;20087;-81
2022/05/15 07:49:42;;;;;;;7.75;3.58;;;;;;;;;;4998193;28;20061;-80
2022/05/15 07:52:08;;;;;;;8.10;3.78;;;;;;;;;;4998861;28;20038;-81
2022/05/15 07:54:33;;;;;;;10.20;4.13;;;;;;;;;;5017274;28;20080;-80
2022/05/15 07:57:00;;;;;;;9.43;4.30;;;;;;;;;;5019837;28;20037;-81
2022/05/15 07:59:27;;;;;;;7.88;3.65;;;;;;;;;;4999028;28;20052;-81
2022/05/15 08:01:55;;;;;;;8.07;3.20;;;;;;;;;;4998710;28;20452;-81
2022/05/15 08:04:21;;;;;;;9.02;3.92;;;;;;;;;;4998403;28;20037;-80
2022/05/15 08:09:30;;;;;;;7.95;3.33;;;;;;;;;;5003564;28;20427;-81
2022/05/15 08:11:55;;;;;;;8.70;3.97;;;;;;;;;;4981749;28;20039;-81
2022/05/15 08:14:21;;;;;;;8.10;4.40;;;;;;;;;;4981688;28;20037;-81
2022/05/15 08:16:46;;;;;;;12.15;4.15;;;;;;;;;;4965451;28;20044;-81
2022/05/15 08:25:03;;;;;;;8.77;4.15;;;;;;;;;;4943868;28;20035;-80
2022/05/15 08:27:28;;;;;;;12.48;5.10;;;;;;;;;;4938934;28;20058;-80
2022/05/15 08:29:54;;;;;;;12.75;4.60;;;;;;;;;;4976548;28;20152;-80
2022/05/15 08:32:19;;;;;;;7.60;4.07;;;;;;;;;;4981611;28;20052;-81
2022/05/15 08:34:45;;;;;;;11.40;4.20;;;;;;;;;;5015372;28;20043;-81
2022/05/15 08:37:11;;;;;;;10.23;4.03;;;;;;;;;;5033486;28;20039;-81
2022/05/15 08:39:36;;;;;;;10.02;3.88;;;;;;;;;;5033771;28;20115;-80
2022/05/15 08:42:28;;;;;;;9.88;3.78;;;;;;;;;;5033596;28;20033;-80
2022/05/15 08:44:55;;;;;;;7.70;3.38;;;;;;;;;;5033638;28;20094;-80
2022/05/15 08:47:31;;;;;;;8.05;3.95;;;;;;;;;;5012276;28;20108;-80
2022/05/15 08:50:02;;;;;;;8.10;3.42;;;;;;;;;;5014094;28;20045;-80
2022/05/15 08:52:53;;;;;;;8.00;3.38;;;;;;;;;;4997498;28;20060;-80
2022/05/15 08:55:21;;;;;;;5.32;2.70;;;;;;;;;;5014291;28;20380;-81
2022/05/15 08:57:54;;;;;;;5.70;2.83;;;;;;;;;;5016935;28;20039;-80
2022/05/15 09:00:24;;;;;;;7.63;3.15;;;;;;;;;;4984328;28;20029;-80
2022/05/15 09:02:49;;;;;;;5.65;3.05;;;;;;;;;;5000851;28;20037;-80
2022/05/15 09:05:15;;;;;;;7.38;2.90;;;;;;;;;;5016867;28;20102;-80
2022/05/15 09:07:55;;;;;;;7.53;3.30;;;;;;;;;;5016122;28;20454;-81
2022/05/15 09:10:20;;;;;;;6.43;2.50;;;;;;;;;;4981344;28;20046;-80
2022/05/15 09:12:49;;;;;;;6.32;2.30;;;;;;;;;;5013352;28;20033;-80
2022/05/15 09:15:20;;;;;;;7.53;2.65;;;;;;;;;;4997374;28;20033;-80
2022/05/15 09:17:46;;;;;;;6.60;2.83;;;;;;;;;;4997397;28;20483;-80
2022/05/15 09:20:15;;;;;;;6.40;2.80;;;;;;;;;;4997684;28;20048;-80
2022/05/15 09:22:46;;;;;;;4.78;2.25;;;;;;;;;;4981566;28;20048;-81
2022/05/15 09:25:19;;;;;;;4.93;2.33;;;;;;;;;;4997370;28;20044;-80
2022/05/15 09:28:07;;;;;;;4.53;2.97;;;;;;;;;;4997372;28;20041;-81
2022/05/15 09:30:42;;;;;;;6.38;2.40;;;;;;;;;;4998216;28;20509;-81
2022/05/15 09:33:11;;;;;;;4.63;2.60;;;;;;;;;;4982082;28;20056;-80
2022/05/15 09:35:40;;;;;;;4.88;2.20;;;;;;;;;;5013147;28;20173;-81
2022/05/15 09:43:55;;;;;;;4.82;2.70;;;;;;;;;;5049789;28;20057;-80
2022/05/15 09:46:24;;;;;;;4.95;2.30;;;;;;;;;;5000158;28;20513;-80
2022/05/15 09:49:06;;;;;;;4.70;2.35;;;;;;;;;;4999787;28;20061;-80
2022/05/15 09:51:49;;;;;;;4.13;1.95;;;;;;;;;;4996944;28;20503;-81
2022/05/15 09:54:50;;;;;;;2.92;1.63;;;;;;;;;;4997253;28;20412;-81
2022/05/15 09:57:18;;;;;;;3.70;1.80;;;;;;;;;;4959270;28;20530;-81
2022/05/15 10:00:05;;;;;;;5.25;2.08;;;;;;;;;;5013224;28;20041;-81
2022/05/15 10:02:44;;;;;;;3.03;1.90;;;;;;;;;;4982744;28;20056;-81
2022/05/15 10:05:23;;;;;;;3.50;1.98;;;;;;;;;;5013244;28;20563;-81
2022/05/15 10:08:00;;;;;;;3.70;1.77;;;;;;;;;;5004132;28;20045;-80
2022/05/15 10:10:46;;;;;;;3.30;1.88;;;;;;;;;;5002515;28;20033;-81
2022/05/15 10:13:30;;;;;;;4.70;2.05;;;;;;;;;;5036001;28;20107;-81
2022/05/15 10:16:02;;;;;;;3.70;1.25;;;;;;;;;;5005223;28;20384;-81
2022/05/15 10:18:29;;;;;;;2.75;1.30;;;;;;;;;;5004740;28;20037;-81
2022/05/15 10:20:54;;;;;;;3.00;1.20;;;;;;;;;;5003661;28;20066;-81
2022/05/15 10:23:43;;;;;;;2.45;1.45;;;;;;;;;;5019947;28;20426;-81
2022/05/15 10:26:22;;;;;;;3.67;1.48;;;;;;;;;;5003966;28;20033;-81
2022/05/15 10:28:52;;;;;;;4.80;1.75;;;;;;;;;;5004522;28;20033;-81
2022/05/15 10:31:27;;;;;;;3.00;1.35;;;;;;;;;;5019904;28;20037;-81
2022/05/15 10:33:56;;;;;;;5.38;1.67;;;;;;;;;;5019416;28;20086;-80
2022/05/15 10:36:46;;;;;;;2.95;1.40;;;;;;;;;;5003609;28;20043;-81
2022/05/15 10:39:27;;;;;;;2.63;1.15;;;;;;;;;;5038624;28;20041;-81
2022/05/15 10:42:39;;;;;;;2.33;1.20;;;;;;;;;;5035854;28;20041;-81
2022/05/15 10:45:18;;;;;;;3.22;1.30;;;;;;;;;;5007977;28;20181;-81
2022/05/15 10:47:50;;;;;;;2.67;1.52;;;;;;;;;;5019042;28;20505;-81
2022/05/15 10:50:38;;;;;;;2.95;1.00;;;;;;;;;;5036140;28;20025;-81
2022/05/15 10:59:49;;;;;;;3.72;1.73;;;;;;;;;;5053936;28;20040;-81
2022/05/15 11:02:36;;;;;;;2.97;1.33;;;;;;;;;;5020921;28;20170;-80
2022/05/15 11:05:16;;;;;;;2.83;1.30;;;;;;;;;;5018954;28;20029;-81
2022/05/15 11:07:59;;;;;;;2.45;1.13;;;;;;;;;;5035447;28;20032;-81
2022/05/15 11:10:46;;;;;;;2.22;1.17;;;;;;;;;;5036384;28;20060;-81
2022/05/15 11:13:53;;;;;;;1.88;1.10;;;;;;;;;;5007010;28;20041;-81
2022/05/15 11:16:28;;;;;;;3.25;1.00;;;;;;;;;;5029655;28;20418;-81
2022/05/15 11:19:24;;;;;;;3.33;1.40;;;;;;;;;;5018942;28;20083;-81
2022/05/15 11:22:09;;;;;;;1.83;1.00;;;;;;;;;;5020292;28;20408;-81
2022/05/15 11:24:49;;;;;;;3.70;1.15;;;;;;;;;;5018693;28;20036;-81
2022/05/15 11:27:21;;;;;;;3.40;1.00;;;;;;;;;;5018226;28;20557;-81
2022/05/15 11:29:49;;;;;;;4.30;1.10;;;;;;;;;;5018737;28;20498;-81
2022/05/15 11:32:30;;;;;;;2.95;1.20;;;;;;;;;;5002355;28;20044;-81
2022/05/15 11:35:04;;;;;;;2.30;1.10;;;;;;;;;;5002377;28;20491;-81
2022/05/15 11:37:38;;;;;;;2.33;0.88;;;;;;;;;;5018554;28;20080;-81
2022/05/15 11:40:08;;;;;;;3.13;1.00;;;;;;;;;;5031804;28;20037;-80
2022/05/15 11:42:34;;;;;;;2.05;0.90;;;;;;;;;;4998835;28;20112;-81
2022/05/15 11:45:28;;;;;;;1.42;0.80;;;;;;;;;;4998698;28;20113;-81
2022/05/15 11:48:17;;;;;;;2.05;0.90;;;;;;;;;;5003838;28;20036;-81
2022/05/15 11:50:53;;;;;;;2.47;0.88;;;;;;;;;;4998976;28;20033;-81
2022/05/15 11:53:28;;;;;;;1.85;1.10;;;;;;;;;;4998812;28;20041;-81
2022/05/15 11:55:54;;;;;;;2.20;1.00;;;;;;;;;;5007183;28;20535;-81
2022/05/15 11:58:40;;;;;;;1.65;0.70;;;;;;;;;;4998399;28;20116;-81
2022/05/15 12:01:12;;;;;;;3.08;1.15;;;;;;;;;;4982498;28;20037;-81
2022/05/15 12:03:44;;;;;;;1.33;0.70;;;;;;;;;;5014824;28;20124;-81
2022/05/15 12:06:31;;;;;;;1.55;0.80;;;;;;;;;;4982339;28;20025;-81
2022/05/15 12:09:19;;;;;;;2.03;0.77;;;;;;;;;;5001854;28;20583;-81
2022/05/15 12:11:45;;;;;;;2.70;0.80;;;;;;;;;;5034395;28;20033;-81
2022/05/15 12:14:26;;;;;;;2.47;1.15;;;;;;;;;;5001525;28;20091;-81
2022/05/15 12:17:04;;;;;;;2.58;1.20;;;;;;;;;;5034496;28;20072;-81
2022/05/15 12:19:38;;;;;;;2.63;1.30;;;;;;;;;;5018621;28;20040;-81
2022/05/15 12:22:13;;;;;;;2.60;1.13;;;;;;;;;;5017965;28;20033;-81
2022/05/15 12:24:40;;;;;;;2.22;1.17;;;;;;;;;;5018813;28;20033;-81
2022/05/15 12:27:24;;;;;;;2.97;1.52;;;;;;;;;;5001390;28;20128;-81
2022/05/15 12:30:02;;;;;;;1.85;1.02;;;;;;;;;;5034225;28;20040;-81
2022/05/15 12:32:30;;;;;;;2.25;0.90;;;;;;;;;;5016979;28;20590;-81
2022/05/15 12:34:55;;;;;;;2.15;0.77;;;;;;;;;;5017348;28;20041;-81
2022/05/15 12:37:41;;;;;;;2.17;0.93;;;;;;;;;;5017770;28;20616;-81
2022/05/15 12:40:07;;;;;;;2.63;1.30;;;;;;;;;;5029379;28;20052;-81
2022/05/15 12:42:34;;;;;;;2.80;1.30;;;;;;;;;;4997855;28;20037;-81
2022/05/15 12:45:05;;;;;;;2.47;1.10;;;;;;;;;;4997580;28;20133;-81
2022/05/15 12:47:34;;;;;;;1.85;0.95;;;;;;;;;;5003419;28;20108;-81
2022/05/15 12:50:02;;;;;;;2.25;0.80;;;;;;;;;;5001258;28;20083;-81
2022/05/15 12:52:31;;;;;;;1.67;0.82;;;;;;;;;;5017594;28;20052;-80
2022/05/15 12:55:08;;;;;;;2.42;1.23;;;;;;;;;;5021041;28;20074;-81
2022/05/15 12:57:44;;;;;;;1.58;0.80;;;;;;;;;;5014829;28;20044;-81
2022/05/15 13:00:12;;;;;;;2.60;1.02;;;;;;;;;;4981439;28;20038;-81
2022/05/15 13:02:38;;;;;;;2.35;1.00;;;;;;;;;;4997945;28;20046;-81
2022/05/15 13:05:24;;;;;;;2.22;0.82;;;;;;;;;;5013877;28;20243;-81
2022/05/15 13:08:00;;;;;;;2.03;0.80;;;;;;;;;;5019381;28;20037;-81
2022/05/15 13:10:25;;;;;;;1.80;0.80;;;;;;;;;;5000794;28;20077;-81
2022/05/15 13:12:53;;;;;;;2.40;1.30;;;;;;;;;;5000267;28;20503;-81
2022/05/15 13:15:22;;;;;;;2.92;0.82;;;;;;;;;;5017313;28;20056;-81
2022/05/15 13:17:47;;;;;;;2.58;1.50;;;;;;;;;;5000785;28;20079;-81
2022/05/15 13:20:15;;;;;;;2.13;0.80;;;;;;;;;;5000669;28;20565;-80
2022/05/15 13:22:40;;;;;;;1.58;0.65;;;;;;;;;;5017046;28;20033;-81
2022/05/15 13:25:37;;;;;;;2.15;1.02;;;;;;;;;;4984179;28;20025;-81
2022/05/15 13:28:03;;;;;;;2.40;0.77;;;;;;;;;;5002577;28;20131;-80
2022/05/15 13:30:29;;;;;;;2.70;1.10;;;;;;;;;;5000375;28;20144;-81
2022/05/15 13:32:59;;;;;;;1.60;0.75;;;;;;;;;;5000602;28;20037;-81
2022/05/15 13:35:24;;;;;;;1.63;0.80;;;;;;;;;;5016709;28;20161;-81
2022/05/15 13:37:53;;;;;;;1.90;0.80;;;;;;;;;;5000467;28;20044;-81
2022/05/15 13:43:18;;;;;;;1.60;0.80;;;;;;;;;;5036112;28;20067;-81
2022/05/15 13:45:56;;;;;;;1.67;0.65;;;;;;;;;;5021317;28;20025;-81
2022/05/15 13:48:25;;;;;;;2.55;1.23;;;;;;;;;;5008407;28;20041;-81
2022/05/15 13:50:55;;;;;;;1.75;0.75;;;;;;;;;;5000522;28;20160;-81
2022/05/15 13:53:33;;;;;;;1.92;0.80;;;;;;;;;;5000616;28;20090;-81
2022/05/15 13:56:04;;;;;;;2.67;0.73;;;;;;;;;;5022907;28;20040;-81
2022/05/15 13:58:57;;;;;;;2.80;1.15;;;;;;;;;;5004973;28;20029;-81
2022/05/15 14:01:31;;;;;;;1.45;0.98;;;;;;;;;;5017813;28;20128;-81
2022/05/15 14:03:57;;;;;;;1.77;0.68;;;;;;;;;;5004777;28;20122;-80
2022/05/15 14:06:23;;;;;;;1.63;0.80;;;;;;;;;;5003723;28;20510;-81
2022/05/15 14:09:05;;;;;;;2.10;0.88;;;;;;;;;;5036795;28;20112;-81
2022/05/15 14:11:47;;;;;;;1.63;0.80;;;;;;;;;;5020753;28;20025;-81
2022/05/15 14:14:13;;;;;;;2.22;1.20;;;;;;;;;;5003915;28;20491;-81
2022/05/15 14:16:38;;;;;;;2.17;0.70;;;;;;;;;;5003452;28;20048;-80
2022/05/15 14:19:30;;;;;;;3.10;0.95;;;;;;;;;;5003555;28;20044;-81
2022/05/15 14:22:01;;;;;;;2.08;0.60;;;;;;;;;;5033583;28;20048;-81
2022/05/15 14:24:27;;;;;;;1.50;0.50;;;;;;;;;;5003875;28;20041;-81
2022/05/15 14:26:52;;;;;;;1.88;0.60;;;;;;;;;;5003373;28;20498;-81
2022/05/15 14:29:20;;;;;;;1.25;0.60;;;;;;;;;;5019815;28;20079;-81
2022/05/15 14:31:48;;;;;;;1.88;0.70;;;;;;;;;;5003423;28;20032;-81
2022/05/15 14:34:13;;;;;;;1.45;0.75;;;;;;;;;;4999733;28;20037;-81
2022/05/15 14:36:40;;;;;;;1.88;0.90;;;;;;;;;;5000147;28;20032;-81
2022/05/15 14:39:08;;;;;;;0.98;0.45;;;;;;;;;;5016669;28;20061;-81
2022/05/15 14:41:40;;;;;;;1.33;0.50;;;;;;;;;;5019297;28;20029;-81
2022/05/15 14:44:06;;;;;;;1.80;0.80;;;;;;;;;;5035654;28;20041;-81
2022/05/15 14:46:31;;;;;;;2.20;0.80;;;;;;;;;;5002406;28;20076;-81
2022/05/15 14:48:56;;;;;;;1.77;0.90;;;;;;;;;;5001676;28;20494;-81
2022/05/15 14:51:24;;;;;;;1.90;0.57;;;;;;;;;;4999597;28;20041;-81
2022/05/15 14:53:51;;;;;;;1.58;0.70;;;;;;;;;;4999525;28;20040;-81
2022/05/15 14:56:17;;;;;;;1.75;0.70;;;;;;;;;;5010319;28;20500;-81
2022/05/15 14:58:54;;;;;;;1.88;0.60;;;;;;;;;;4999641;28;20037;-81
2022/05/15 15:01:20;;;;;;;2.17;0.70;;;;;;;;;;4999266;28;20041;-81
2022/05/15 15:03:46;;;;;;;1.55;0.55;;;;;;;;;;4999191;28;20523;-80
2022/05/15 15:06:11;;;;;;;1.63;0.55;;;;;;;;;;4999135;28;20041;-81
2022/05/15 15:08:37;;;;;;;2.08;0.88;;;;;;;;;;5029176;28;20574;-81
2022/05/15 15:11:08;;;;;;;2.25;1.23;;;;;;;;;;5002696;28;20029;-81
2022/05/15 15:13:33;;;;;;;2.05;0.98;;;;;;;;;;5002869;28;20502;-81
2022/05/15 15:15:59;;;;;;;2.03;0.70;;;;;;;;;;4986213;28;20032;-81
2022/05/15 15:18:27;;;;;;;1.50;0.65;;;;;;;;;;5018408;28;20051;-81
2022/05/15 15:20:52;;;;;;;2.00;0.82;;;;;;;;;;5003009;28;20029;-81
2022/05/15 15:23:18;;;;;;;1.67;0.55;;;;;;;;;;5002453;28;20040;-81